createdAt,value
2018-03-30T00:02:13.700Z,99.90
2018-03-30T00:04:42.781Z,99.90
2018-03-30T00:07:11.126Z,99.90
2018-03-30T00:09:56.132Z,99.90
2018-03-30T00:12:27.185Z,99.90
2018-03-30T00:14:56.116Z,99.90
2018-03-30T00:17:25.201Z,99.90
2018-03-30T00:19:53.603Z,99.90
2018-03-30T00:22:21.963Z,99.90
2018-03-30T00:24:51.028Z,99.90
2018-03-30T00:27:19.353Z,99.90
2018-03-30T00:29:50.093Z,99.90
2018-03-30T00:32:18.468Z,99.90
2018-03-30T00:34:46.790Z,99.90
2018-03-30T00:37:15.104Z,99.90
2018-03-30T00:39:43.456Z,99.90
2018-03-30T00:42:12.949Z,99.90
2018-03-30T00:44:41.282Z,99.90
2018-03-30T00:47:10.084Z,99.90
2018-03-30T00:49:40.858Z,99.90
2018-03-30T00:52:09.948Z,99.90
2018-03-30T00:54:38.312Z,99.90
2018-03-30T00:57:06.699Z,99.90
2018-03-30T00:59:35.020Z,99.90
2018-03-30T01:02:03.385Z,99.90
2018-03-30T01:04:31.712Z,99.90
2018-03-30T01:07:00.571Z,99.90
2018-03-30T01:09:29.016Z,99.90
2018-03-30T01:11:57.332Z,99.90
2018-03-30T01:14:26.258Z,99.90
2018-03-30T01:16:54.693Z,99.90
2018-03-30T01:19:23.036Z,99.90
2018-03-30T01:21:51.951Z,99.90
2018-03-30T01:24:20.822Z,99.90
2018-03-30T01:26:49.543Z,99.90
2018-03-30T01:29:18.344Z,99.90
2018-03-30T01:31:46.777Z,99.90
2018-03-30T01:34:15.969Z,99.90
2018-03-30T01:36:44.825Z,99.90
2018-03-30T01:39:13.565Z,99.90
2018-03-30T01:41:44.623Z,99.90
2018-03-30T01:44:13.900Z,99.90
2018-03-30T01:46:43.771Z,99.90
2018-03-30T01:49:12.688Z,99.90
2018-03-30T01:51:43.524Z,99.90
2018-03-30T01:54:11.863Z,99.90
2018-03-30T01:56:40.199Z,99.90
2018-03-30T01:59:08.679Z,99.90
2018-03-30T02:01:37.014Z,99.90
2018-03-30T02:04:05.341Z,99.90
2018-03-30T02:06:34.472Z,99.90
2018-03-30T02:09:02.788Z,99.90
2018-03-30T02:11:31.146Z,99.90
2018-03-30T02:14:00.126Z,99.90
2018-03-30T02:16:30.236Z,99.90
2018-03-30T02:18:59.378Z,99.90
2018-03-30T02:21:27.788Z,99.90
2018-03-30T02:23:56.120Z,99.90
2018-03-30T02:26:25.952Z,99.90
2018-03-30T02:28:58.572Z,99.90
2018-03-30T02:31:27.641Z,99.90
2018-03-30T02:33:57.868Z,99.90
2018-03-30T02:36:27.266Z,99.90
2018-03-30T02:38:57.127Z,99.90
2018-03-30T02:41:25.570Z,99.90
2018-03-30T02:43:54.524Z,99.90
2018-03-30T02:46:23.608Z,99.90
2018-03-30T02:48:52.399Z,99.90
2018-03-30T02:51:20.781Z,99.90
2018-03-30T02:53:50.169Z,99.90
2018-03-30T02:56:19.381Z,99.90
2018-03-30T02:58:47.710Z,99.90
2018-03-30T03:01:16.052Z,99.90
2018-03-30T03:03:45.646Z,99.90
2018-03-30T03:06:14.247Z,99.90
2018-03-30T03:08:43.829Z,99.90
2018-03-30T03:11:12.239Z,99.90
2018-03-30T03:13:40.559Z,99.90
2018-03-30T03:16:08.888Z,99.90
2018-03-30T03:18:37.236Z,99.90
2018-03-30T03:21:06.304Z,99.90
2018-03-30T03:23:35.145Z,99.90
2018-03-30T03:26:03.496Z,99.90
2018-03-30T03:28:32.532Z,99.90
2018-03-30T03:31:01.573Z,99.90
2018-03-30T03:33:29.895Z,99.90
2018-03-30T03:35:58.295Z,99.90
2018-03-30T03:38:27.603Z,99.90
2018-03-30T03:40:55.927Z,99.90
2018-03-30T03:43:24.615Z,99.90
2018-03-30T03:45:52.941Z,99.90
2018-03-30T03:48:22.916Z,99.90
2018-03-30T03:50:51.937Z,99.90
2018-03-30T03:53:20.281Z,99.90
2018-03-30T03:55:48.824Z,99.90
2018-03-30T03:58:17.557Z,99.90
2018-03-30T04:00:45.880Z,99.90
2018-03-30T04:03:14.481Z,99.90
2018-03-30T04:05:43.344Z,99.90
2018-03-30T04:08:11.673Z,99.90
2018-03-30T04:10:39.988Z,99.90
2018-03-30T04:13:09.788Z,99.90
2018-03-30T04:15:38.136Z,99.90
2018-03-30T04:18:06.475Z,99.90
2018-03-30T04:20:35.471Z,99.90
2018-03-30T04:23:04.288Z,99.90
2018-03-30T04:25:32.952Z,99.90
2018-03-30T04:28:01.420Z,99.90
2018-03-30T04:30:34.120Z,99.90
2018-03-30T04:33:02.553Z,99.90
2018-03-30T04:35:31.591Z,99.90
2018-03-30T04:38:00.611Z,99.90
2018-03-30T04:40:29.764Z,99.90
2018-03-30T04:42:58.856Z,99.90
2018-03-30T04:45:31.072Z,99.90
2018-03-30T04:48:00.128Z,99.90
2018-03-30T04:50:29.374Z,99.90
2018-03-30T04:52:59.443Z,99.90
2018-03-30T04:55:28.447Z,99.90
2018-03-30T04:57:57.532Z,99.90
2018-03-30T05:00:26.603Z,99.90
2018-03-30T05:02:54.924Z,99.90
2018-03-30T05:05:23.919Z,99.90
2018-03-30T05:07:52.283Z,99.90
2018-03-30T05:10:21.512Z,99.90
2018-03-30T05:12:50.484Z,99.90
2018-03-30T05:15:19.392Z,99.90
2018-03-30T05:17:48.312Z,99.90
2018-03-30T05:20:16.906Z,99.90
2018-03-30T05:22:46.804Z,99.90
2018-03-30T05:25:15.903Z,99.90
2018-03-30T05:27:44.385Z,99.90
2018-03-30T05:30:13.246Z,99.90
2018-03-30T05:32:41.619Z,99.90
2018-03-30T05:35:10.613Z,99.90
2018-03-30T05:37:39.717Z,99.90
2018-03-30T05:40:08.072Z,99.90
2018-03-30T05:42:37.116Z,99.90
2018-03-30T05:45:05.587Z,99.90
2018-03-30T05:47:35.345Z,99.90
2018-03-30T05:50:03.740Z,99.90
2018-03-30T05:52:33.480Z,99.90
2018-03-30T05:55:02.631Z,99.90
2018-03-30T05:57:31.824Z,99.90
2018-03-30T06:00:00.494Z,99.90
2018-03-30T06:02:28.824Z,99.90
2018-03-30T06:04:58.129Z,99.90
2018-03-30T06:07:26.459Z,99.90
2018-03-30T06:09:54.804Z,99.90
2018-03-30T06:12:24.958Z,99.90
2018-03-30T06:14:53.787Z,99.90
2018-03-30T06:17:22.165Z,99.90
2018-03-30T06:19:50.506Z,99.90
2018-03-30T06:22:18.948Z,99.90
2018-03-30T06:24:47.264Z,99.90
2018-03-30T06:27:15.988Z,99.90
2018-03-30T06:29:44.771Z,99.90
2018-03-30T06:32:13.087Z,99.90
2018-03-30T06:34:41.443Z,99.90
2018-03-30T06:37:10.153Z,99.90
2018-03-30T06:39:38.996Z,99.90
2018-03-30T06:42:08.223Z,99.90
2018-03-30T06:44:36.640Z,99.90
2018-03-30T06:47:05.376Z,99.90
2018-03-30T06:49:34.521Z,99.90
2018-03-30T06:52:02.842Z,99.90
2018-03-30T06:54:31.936Z,99.90
2018-03-30T06:57:01.033Z,99.90
2018-03-30T06:59:30.044Z,99.90
2018-03-30T07:01:59.154Z,99.90
2018-03-30T07:04:27.540Z,99.90
2018-03-30T07:06:56.595Z,99.90
2018-03-30T07:09:25.607Z,99.90
2018-03-30T07:11:53.989Z,99.90
2018-03-30T07:14:22.344Z,99.90
2018-03-30T07:16:51.276Z,99.90
2018-03-30T07:19:19.736Z,99.90
2018-03-30T07:21:48.803Z,99.90
2018-03-30T07:24:17.132Z,99.90
2018-03-30T07:26:47.000Z,99.90
2018-03-30T07:29:16.083Z,99.90
2018-03-30T07:31:45.042Z,99.90
2018-03-30T07:34:13.404Z,99.90
2018-03-30T07:36:42.428Z,99.90
2018-03-30T07:39:10.823Z,99.90
2018-03-30T07:41:39.816Z,99.90
2018-03-30T07:44:08.915Z,99.90
2018-03-30T07:46:37.241Z,99.90
2018-03-30T07:49:06.774Z,99.90
2018-03-30T07:51:35.356Z,99.90
2018-03-30T07:54:03.672Z,99.90
2018-03-30T07:56:37.687Z,99.90
2018-03-30T07:59:06.994Z,99.90
2018-03-30T08:01:35.875Z,99.90
2018-03-30T08:04:04.392Z,99.90
2018-03-30T08:06:34.885Z,99.90
2018-03-30T08:09:03.431Z,99.90
2018-03-30T08:11:33.187Z,99.90
2018-03-30T08:14:02.109Z,99.90
2018-03-30T08:16:30.439Z,99.90
2018-03-30T08:18:59.496Z,99.90
2018-03-30T08:21:28.600Z,99.00
2018-03-30T08:23:57.256Z,97.70
2018-03-30T08:26:25.613Z,98.50
2018-03-30T08:28:55.099Z,95.80
2018-03-30T08:31:24.345Z,95.80
2018-03-30T08:33:52.720Z,92.00
2018-03-30T08:36:21.036Z,88.50
2018-03-30T08:38:50.270Z,85.20
2018-03-30T08:41:20.027Z,76.60
2018-03-30T08:43:48.797Z,85.70
2018-03-30T08:46:17.800Z,88.90
2018-03-30T08:48:46.232Z,90.70
2018-03-30T08:51:15.349Z,92.00
2018-03-30T08:53:44.593Z,93.00
2018-03-30T08:56:13.499Z,91.60
2018-03-30T08:58:42.489Z,93.20
2018-03-30T09:01:11.715Z,92.60
2018-03-30T09:03:40.899Z,90.20
2018-03-30T09:06:09.906Z,89.10
2018-03-30T09:08:39.014Z,81.00
2018-03-30T09:11:08.049Z,78.60
2018-03-30T09:13:36.420Z,76.10
2018-03-30T09:16:05.258Z,77.00
2018-03-30T09:18:33.690Z,73.60
2018-03-30T09:21:02.067Z,73.00
2018-03-30T09:23:30.560Z,73.20
2018-03-30T09:25:58.889Z,72.70
2018-03-30T09:28:27.647Z,71.10
2018-03-30T09:30:56.692Z,70.20
2018-03-30T09:33:28.943Z,61.60
2018-03-30T09:35:58.162Z,59.10
2018-03-30T09:38:26.483Z,59.30
2018-03-30T09:40:55.708Z,58.00
2018-03-30T09:43:24.032Z,58.50
2018-03-30T09:45:52.336Z,58.20
2018-03-30T09:48:20.687Z,56.70
2018-03-30T09:50:50.303Z,52.20
2018-03-30T09:53:19.752Z,47.40
2018-03-30T09:55:48.718Z,45.90
2018-03-30T09:58:17.810Z,47.20
2018-03-30T10:00:46.126Z,49.80
2018-03-30T10:03:15.251Z,40.70
2018-03-30T10:05:43.560Z,40.50
2018-03-30T10:08:11.884Z,40.90
2018-03-30T10:10:40.253Z,41.20
2018-03-30T10:13:09.677Z,42.10
2018-03-30T10:15:37.993Z,42.00
2018-03-30T10:18:06.482Z,44.20
2018-03-30T10:20:35.163Z,44.40
2018-03-30T10:23:03.472Z,45.60
2018-03-30T10:25:31.812Z,45.40
2018-03-30T10:28:00.248Z,43.50
2018-03-30T10:30:29.436Z,43.50
2018-03-30T10:32:57.752Z,43.40
2018-03-30T10:35:26.621Z,42.60
2018-03-30T10:37:54.970Z,42.90
2018-03-30T10:40:23.308Z,38.20
2018-03-30T10:42:52.276Z,36.80
2018-03-30T10:45:20.744Z,37.10
2018-03-30T10:47:49.698Z,37.40
2018-03-30T10:50:18.010Z,38.10
2018-03-30T10:52:46.659Z,39.10
2018-03-30T10:55:15.518Z,38.20
2018-03-30T10:57:44.658Z,37.10
2018-03-30T11:00:13.685Z,37.20
2018-03-30T11:02:42.742Z,38.30
2018-03-30T11:05:11.145Z,39.30
2018-03-30T11:07:39.997Z,39.50
2018-03-30T11:10:08.505Z,39.30
2018-03-30T11:12:36.904Z,39.20
2018-03-30T11:15:05.680Z,39.50
2018-03-30T11:17:34.779Z,39.60
2018-03-30T11:20:03.852Z,39.60
2018-03-30T11:22:33.089Z,39.30
2018-03-30T11:25:01.598Z,37.60
2018-03-30T11:27:30.440Z,38.10
2018-03-30T11:29:59.355Z,39.50
2018-03-30T11:32:27.682Z,39.40
2018-03-30T11:34:57.726Z,39.00
2018-03-30T11:37:26.649Z,38.10
2018-03-30T11:39:54.957Z,39.10
2018-03-30T11:42:23.307Z,38.60
2018-03-30T11:44:51.616Z,37.10
2018-03-30T11:47:19.978Z,37.50
2018-03-30T11:49:48.328Z,36.00
2018-03-30T11:52:16.645Z,36.70
2018-03-30T11:54:45.595Z,36.40
2018-03-30T11:57:16.308Z,36.90
2018-03-30T11:59:44.674Z,37.60
2018-03-30T12:02:13.712Z,36.40
2018-03-30T12:04:42.105Z,35.00
2018-03-30T12:07:10.408Z,35.90
2018-03-30T12:09:38.868Z,36.10
2018-03-30T12:12:07.320Z,36.90
2018-03-30T12:14:35.645Z,36.60
2018-03-30T12:17:04.151Z,37.80
2018-03-30T12:19:32.697Z,38.20
2018-03-30T12:22:01.008Z,38.90
2018-03-30T12:24:30.617Z,38.30
2018-03-30T12:27:04.701Z,38.70
2018-03-30T12:29:33.048Z,37.90
2018-03-30T12:32:01.368Z,37.20
2018-03-30T12:34:29.698Z,37.50
2018-03-30T12:36:58.074Z,36.00
2018-03-30T12:39:27.488Z,37.30
2018-03-30T12:41:55.816Z,37.30
2018-03-30T12:44:24.217Z,37.40
2018-03-30T12:46:52.532Z,37.40
2018-03-30T12:49:21.483Z,37.50
2018-03-30T12:51:50.726Z,38.20
2018-03-30T12:54:19.437Z,38.80
2018-03-30T12:56:47.909Z,39.60
2018-03-30T12:59:16.310Z,40.90
2018-03-30T13:01:44.383Z,40.30
2018-03-30T13:04:13.701Z,40.60
2018-03-30T13:06:42.660Z,41.80
2018-03-30T13:09:11.688Z,42.40
2018-03-30T13:11:41.164Z,42.20
2018-03-30T13:14:09.530Z,43.60
2018-03-30T13:16:38.401Z,43.60
2018-03-30T13:19:06.940Z,45.00
2018-03-30T13:21:35.634Z,46.30
2018-03-30T13:24:05.481Z,47.40
2018-03-30T13:26:33.929Z,47.60
2018-03-30T13:29:02.288Z,46.90
2018-03-30T13:31:30.591Z,46.30
2018-03-30T13:33:59.748Z,45.30
2018-03-30T13:36:28.572Z,45.30
2018-03-30T13:38:57.651Z,47.60
2018-03-30T13:41:26.148Z,47.60
2018-03-30T13:43:55.156Z,48.50
2018-03-30T13:46:23.467Z,49.00
2018-03-30T13:48:57.321Z,47.90
2018-03-30T13:51:52.500Z,47.10
2018-03-30T13:54:23.140Z,47.10
2018-03-30T14:10:25.988Z,42.50
2018-03-30T14:12:54.343Z,42.40
2018-03-30T14:15:33.296Z,42.50
2018-03-30T14:31:34.875Z,46.80
2018-03-30T14:34:08.624Z,47.50
2018-03-30T14:36:41.567Z,47.30
2018-03-30T14:39:14.454Z,47.20
2018-03-30T14:41:42.822Z,47.30
2018-03-30T14:44:12.801Z,46.00
2018-03-30T14:46:47.331Z,45.50
2018-03-30T14:49:17.499Z,45.70
2018-03-30T15:05:39.740Z,46.20
2018-03-30T15:08:23.563Z,45.90
2018-03-30T15:11:04.822Z,43.80
2018-03-30T15:13:52.901Z,43.50
2018-03-30T15:29:52.211Z,49.50
2018-03-30T15:32:31.123Z,49.60
2018-03-30T15:34:59.484Z,50.60
2018-03-30T15:37:27.874Z,51.10
2018-03-30T15:40:04.956Z,51.60
2018-03-30T15:55:58.409Z,51.70
2018-03-30T15:58:26.949Z,52.00
2018-03-30T16:00:55.273Z,51.90
2018-03-30T16:03:23.641Z,52.50
2018-03-30T16:05:51.939Z,53.40
2018-03-30T16:08:21.023Z,54.70
2018-03-30T16:24:31.459Z,55.90
2018-03-30T16:26:58.984Z,56.50
2018-03-30T16:29:26.547Z,57.10
2018-03-30T16:31:55.618Z,56.20
2018-03-30T16:34:23.636Z,56.40
2018-03-30T16:36:51.903Z,57.00
2018-03-30T16:39:20.182Z,57.40
2018-03-30T16:41:49.299Z,58.10
2018-03-30T16:44:18.064Z,57.20
2018-03-30T16:46:46.775Z,57.90
2018-03-30T16:49:14.350Z,57.90
2018-03-30T16:51:42.522Z,58.50
2018-03-30T16:54:10.060Z,58.60
2018-03-30T16:56:37.640Z,60.20
2018-03-30T16:59:05.166Z,60.20
2018-03-30T17:01:32.681Z,61.10
2018-03-30T17:04:00.272Z,61.60
2018-03-30T17:06:28.088Z,63.00
2018-03-30T17:08:56.874Z,63.30
2018-03-30T17:11:25.688Z,67.00
2018-03-30T17:13:53.248Z,66.90
2018-03-30T17:16:21.847Z,71.60
2018-03-30T17:18:49.462Z,71.50
2018-03-30T17:21:17.776Z,72.80
2018-03-30T17:23:45.440Z,75.20
2018-03-30T17:26:13.350Z,76.80
2018-03-30T17:28:40.880Z,78.40
2018-03-30T17:31:08.892Z,82.20
2018-03-30T17:33:39.818Z,86.30
2018-03-30T17:36:07.349Z,99.90
2018-03-30T17:38:34.880Z,99.90
2018-03-30T17:41:03.976Z,99.90
2018-03-30T17:43:35.040Z,99.90
2018-03-30T17:46:03.831Z,99.90
2018-03-30T17:48:31.893Z,99.90
2018-03-30T17:50:59.415Z,99.90
2018-03-30T17:53:28.307Z,99.90
2018-03-30T17:55:55.891Z,99.90
2018-03-30T17:58:25.162Z,99.90
2018-03-30T18:00:56.736Z,99.90
2018-03-30T18:03:30.013Z,99.90
2018-03-30T18:05:58.691Z,99.90
2018-03-30T18:08:26.302Z,99.90
2018-03-30T18:10:53.812Z,99.90
2018-03-30T18:13:21.520Z,99.90
2018-03-30T18:15:50.393Z,99.90
2018-03-30T18:18:24.123Z,99.90
2018-03-30T18:20:57.712Z,99.90
2018-03-30T18:23:27.322Z,99.90
2018-03-30T18:25:55.859Z,99.90
2018-03-30T18:28:24.436Z,99.90
2018-03-30T18:30:52.266Z,99.90
2018-03-30T18:33:21.067Z,99.90
2018-03-30T18:35:50.471Z,99.90
2018-03-30T18:38:18.764Z,99.90
2018-03-30T18:40:47.085Z,99.90
2018-03-30T18:43:20.068Z,99.90
2018-03-30T18:45:48.625Z,99.90
2018-03-30T18:48:18.364Z,99.90
2018-03-30T18:50:45.880Z,99.90
2018-03-30T18:53:14.153Z,99.90
2018-03-30T18:55:44.324Z,99.90
2018-03-30T18:58:18.209Z,99.90
2018-03-30T19:00:49.676Z,99.90
2018-03-30T19:03:18.031Z,99.90
2018-03-30T19:05:45.604Z,99.90
2018-03-30T19:08:13.951Z,99.90
2018-03-30T19:10:45.148Z,99.90
2018-03-30T19:13:13.524Z,99.90
2018-03-30T19:15:42.688Z,99.90
2018-03-30T19:18:10.761Z,99.90
2018-03-30T19:20:38.280Z,99.90
2018-03-30T19:23:07.408Z,99.90
2018-03-30T19:25:40.839Z,99.90
2018-03-30T19:28:10.208Z,99.90
2018-03-30T19:30:37.832Z,99.90
2018-03-30T19:33:05.432Z,99.90
2018-03-30T19:35:33.658Z,99.90
2018-03-30T19:38:01.926Z,99.90
2018-03-30T19:40:29.525Z,99.90
2018-03-30T19:43:03.060Z,99.90
2018-03-30T19:45:31.538Z,99.90
2018-03-30T19:47:59.154Z,99.90
2018-03-30T19:50:27.424Z,99.90
2018-03-30T19:52:56.672Z,99.90
2018-03-30T19:55:26.124Z,99.90
2018-03-30T19:57:55.582Z,99.90
2018-03-30T20:00:24.575Z,99.90
2018-03-30T20:02:52.133Z,99.90
2018-03-30T20:05:25.480Z,99.90
2018-03-30T20:07:53.532Z,99.90
2018-03-30T20:10:21.061Z,99.90
2018-03-30T20:12:49.331Z,99.90
2018-03-30T20:15:18.386Z,99.90
2018-03-30T20:17:47.554Z,99.90
2018-03-30T20:20:16.635Z,99.90
2018-03-30T20:22:45.750Z,99.90
2018-03-30T20:25:15.472Z,99.90
2018-03-30T20:27:44.120Z,99.90
2018-03-30T20:30:11.672Z,99.90
2018-03-30T20:32:40.626Z,99.90
2018-03-30T20:35:11.150Z,99.90
2018-03-30T20:37:40.175Z,99.90
2018-03-30T20:40:09.300Z,99.90
2018-03-30T20:42:37.730Z,99.90
2018-03-30T20:45:06.103Z,99.90
2018-03-30T20:47:35.648Z,99.90
2018-03-30T20:50:03.752Z,99.90
2018-03-30T20:52:34.010Z,99.90
2018-03-30T20:55:03.029Z,99.90
2018-03-30T20:57:32.199Z,99.90
2018-03-30T21:00:02.116Z,99.90
2018-03-30T21:02:31.214Z,99.90
2018-03-30T21:05:02.746Z,99.90
2018-03-30T21:07:31.178Z,99.90
2018-03-30T21:10:00.689Z,99.90
2018-03-30T21:12:28.476Z,99.90
2018-03-30T21:14:56.829Z,99.90
2018-03-30T21:17:25.011Z,99.90
2018-03-30T21:19:53.216Z,99.90
2018-03-30T21:22:20.752Z,99.90
2018-03-30T21:24:49.137Z,99.90
2018-03-30T21:27:16.656Z,99.90
2018-03-30T21:29:44.184Z,99.90
2018-03-30T21:32:12.362Z,99.90
2018-03-30T21:34:41.285Z,99.90
2018-03-30T21:37:08.836Z,99.90
2018-03-30T21:39:36.364Z,99.90
2018-03-30T21:42:04.591Z,99.90
2018-03-30T21:44:32.775Z,99.90
2018-03-30T21:47:00.382Z,99.90
2018-03-30T21:49:27.903Z,99.90
2018-03-30T21:51:55.464Z,99.90
2018-03-30T21:54:23.347Z,99.90
2018-03-30T21:56:50.885Z,99.90
2018-03-30T21:59:19.376Z,99.90
2018-03-30T22:01:47.531Z,99.90
2018-03-30T22:04:15.052Z,99.90
2018-03-30T22:06:42.789Z,99.90
2018-03-30T22:09:10.366Z,99.90
2018-03-30T22:11:38.209Z,99.90
2018-03-30T22:14:05.784Z,99.90
2018-03-30T22:16:33.897Z,99.90
2018-03-30T22:19:02.039Z,99.90
2018-03-30T22:21:29.564Z,99.90
2018-03-30T22:23:58.667Z,99.90
2018-03-30T22:26:26.236Z,99.90
2018-03-30T22:28:53.760Z,99.90
2018-03-30T22:31:21.957Z,99.90
2018-03-30T22:33:49.728Z,99.90
2018-03-30T22:36:17.248Z,99.90
2018-03-30T22:38:46.661Z,99.90
2018-03-30T22:41:14.944Z,99.90
2018-03-30T22:43:44.053Z,99.90
2018-03-30T22:46:12.244Z,99.90
2018-03-30T22:48:39.773Z,99.90
2018-03-30T22:51:09.666Z,99.90
2018-03-30T22:53:41.144Z,99.90
2018-03-30T22:56:08.712Z,99.90
2018-03-30T22:58:37.063Z,99.90
2018-03-30T23:01:04.591Z,99.90
2018-03-30T23:03:32.848Z,99.90
2018-03-30T23:06:02.774Z,99.90
2018-03-30T23:08:30.348Z,99.90
2018-03-30T23:10:58.281Z,99.90
2018-03-30T23:13:25.907Z,99.90
2018-03-30T23:15:53.424Z,99.90
2018-03-30T23:18:24.920Z,99.90
2018-03-30T23:20:53.688Z,99.90
2018-03-30T23:23:22.492Z,99.90
2018-03-30T23:25:51.216Z,99.90
2018-03-30T23:28:18.741Z,99.90
2018-03-30T23:30:47.834Z,99.90
2018-03-30T23:33:15.403Z,99.90
2018-03-30T23:35:48.501Z,99.90
2018-03-30T23:38:16.911Z,99.90
2018-03-30T23:40:44.514Z,99.90
2018-03-30T23:43:12.167Z,99.90
2018-03-30T23:45:40.725Z,99.90
2018-03-30T23:48:08.553Z,99.90
2018-03-30T23:50:36.304Z,99.90
2018-03-30T23:53:03.884Z,99.90
2018-03-30T23:55:32.245Z,99.90
2018-03-30T23:58:01.308Z,99.90
